Time;durP1;ratioP1;P1;durP2;ratioP2;P2;SDS_P1;SDS_P2;PMS_P1;PMS_P2;Temp;Humidity;BMP_temperature;BMP_pressure;BME280_temperature;BME280_humidity;BME280_pressure;Samples;Min_cycle;Max_cycle;Signal;HPM_P1;HPM_P2
2023/06/25 00:01:45;;;;;;;4.03;1.90;;;;;;;;;;5070521;28;20535;-71
2023/06/25 00:04:12;;;;;;;3.30;2.30;;;;;;;;;;5070801;28;20451;-71
2023/06/25 00:06:40;;;;;;;3.40;2.03;;;;;;;;;;5070244;28;21011;-71
2023/06/25 00:09:08;;;;;;;3.87;1.87;;;;;;;;;;5069109;28;20959;-71
2023/06/25 00:11:35;;;;;;;3.50;1.93;;;;;;;;;;5070228;28;20988;-71
2023/06/25 00:14:03;;;;;;;3.27;1.57;;;;;;;;;;5068709;28;20523;-71
2023/06/25 00:16:30;;;;;;;2.83;1.70;;;;;;;;;;5070111;28;20527;-71
2023/06/25 00:18:57;;;;;;;3.37;2.13;;;;;;;;;;5067401;28;20506;-71
2023/06/25 00:21:24;;;;;;;4.20;2.23;;;;;;;;;;5070281;28;20449;-71
2023/06/25 00:23:53;;;;;;;3.60;1.80;;;;;;;;;;5070320;28;20494;-71
2023/06/25 00:26:20;;;;;;;2.60;1.67;;;;;;;;;;5069270;28;20484;-71
2023/06/25 00:28:48;;;;;;;3.80;2.07;;;;;;;;;;5070860;28;21002;-71
2023/06/25 00:31:15;;;;;;;4.67;2.40;;;;;;;;;;5071564;28;20528;-71
2023/06/25 00:33:43;;;;;;;4.70;2.33;;;;;;;;;;5073473;28;20460;-71
2023/06/25 00:36:10;;;;;;;2.93;1.87;;;;;;;;;;5070901;28;20453;-71
2023/06/25 00:38:38;;;;;;;3.43;2.37;;;;;;;;;;5070716;28;20491;-71
2023/06/25 00:41:08;;;;;;;3.53;2.00;;;;;;;;;;5074339;28;20452;-71
2023/06/25 00:43:35;;;;;;;3.33;2.37;;;;;;;;;;5075003;28;20877;-71
2023/06/25 00:46:03;;;;;;;4.40;2.20;;;;;;;;;;5074592;28;21056;-71
2023/06/25 00:48:30;;;;;;;3.17;2.13;;;;;;;;;;5075152;28;21086;-71
2023/06/25 00:51:01;;;;;;;3.57;1.73;;;;;;;;;;5074955;28;20820;-71
2023/06/25 00:53:29;;;;;;;2.63;1.47;;;;;;;;;;5074893;28;20460;-71
2023/06/25 00:55:56;;;;;;;4.10;2.50;;;;;;;;;;5074101;28;20501;-71
2023/06/25 00:58:25;;;;;;;3.70;2.10;;;;;;;;;;5074469;28;20521;-72
2023/06/25 01:00:53;;;;;;;3.93;1.97;;;;;;;;;;5074711;28;20481;-71
2023/06/25 01:03:26;;;;;;;2.87;1.87;;;;;;;;;;5077587;28;20548;-70
2023/06/25 01:05:58;;;;;;;3.60;2.37;;;;;;;;;;5097676;28;20461;-71
2023/06/25 01:08:28;;;;;;;3.83;2.00;;;;;;;;;;5074488;28;20505;-72
2023/06/25 01:10:56;;;;;;;2.93;1.67;;;;;;;;;;5074712;28;20732;-72
2023/06/25 01:13:24;;;;;;;2.53;1.63;;;;;;;;;;5074593;28;20555;-71
2023/06/25 01:15:52;;;;;;;3.43;2.10;;;;;;;;;;5072116;28;20519;-71
2023/06/25 01:18:22;;;;;;;2.90;2.23;;;;;;;;;;5072411;28;20838;-71
2023/06/25 01:20:51;;;;;;;2.97;1.80;;;;;;;;;;5074410;28;20481;-71
2023/06/25 01:23:21;;;;;;;3.53;2.13;;;;;;;;;;5074894;28;20466;-71
2023/06/25 01:25:48;;;;;;;3.10;2.07;;;;;;;;;;5073066;28;20870;-71
2023/06/25 01:28:19;;;;;;;2.30;1.50;;;;;;;;;;5074198;28;20531;-71
2023/06/25 01:30:47;;;;;;;2.30;1.47;;;;;;;;;;5073972;28;20877;-71
2023/06/25 01:33:15;;;;;;;3.53;1.50;;;;;;;;;;5074134;28;20468;-71
2023/06/25 01:35:43;;;;;;;2.87;1.87;;;;;;;;;;5073996;28;20444;-71
2023/06/25 01:38:10;;;;;;;3.20;1.93;;;;;;;;;;5073666;28;20444;-71
2023/06/25 01:40:39;;;;;;;3.70;1.97;;;;;;;;;;5074000;28;20808;-71
2023/06/25 01:43:06;;;;;;;3.67;2.30;;;;;;;;;;5072168;28;20981;-71
2023/06/25 01:45:33;;;;;;;3.87;2.30;;;;;;;;;;5074025;28;20535;-69
2023/06/25 01:48:01;;;;;;;4.10;1.97;;;;;;;;;;5073637;28;20535;-71
2023/06/25 01:50:28;;;;;;;3.40;1.83;;;;;;;;;;5073734;28;20549;-71
2023/06/25 01:52:55;;;;;;;3.23;2.17;;;;;;;;;;5072947;28;20549;-72
2023/06/25 01:55:22;;;;;;;2.87;1.80;;;;;;;;;;5073467;28;20489;-71
2023/06/25 01:57:51;;;;;;;3.63;2.23;;;;;;;;;;5073517;28;20647;-71
2023/06/25 02:00:20;;;;;;;3.60;2.20;;;;;;;;;;5073581;28;20528;-71
2023/06/25 02:02:47;;;;;;;3.30;2.30;;;;;;;;;;5073492;28;20467;-71
2023/06/25 02:05:15;;;;;;;4.50;2.13;;;;;;;;;;5073468;28;20451;-71
2023/06/25 02:07:42;;;;;;;3.00;1.60;;;;;;;;;;5073028;28;20441;-71
2023/06/25 02:10:12;;;;;;;3.30;1.90;;;;;;;;;;5073164;28;21090;-71
2023/06/25 02:12:39;;;;;;;3.37;1.87;;;;;;;;;;5073076;28;20507;-71
2023/06/25 02:15:09;;;;;;;3.10;2.17;;;;;;;;;;5071465;28;20856;-71
2023/06/25 02:17:36;;;;;;;4.17;2.27;;;;;;;;;;5071068;28;20498;-71
2023/06/25 02:20:03;;;;;;;2.80;1.87;;;;;;;;;;5073649;28;20433;-71
2023/06/25 02:22:30;;;;;;;3.20;2.00;;;;;;;;;;5072797;28;20464;-71
2023/06/25 02:24:58;;;;;;;3.30;2.30;;;;;;;;;;5072168;28;20588;-71
2023/06/25 02:27:25;;;;;;;4.00;2.23;;;;;;;;;;5073181;28;20534;-71
2023/06/25 02:29:52;;;;;;;2.80;1.80;;;;;;;;;;5072830;28;20580;-72
2023/06/25 02:32:21;;;;;;;3.33;1.83;;;;;;;;;;5073231;28;20534;-71
2023/06/25 02:34:48;;;;;;;3.10;2.00;;;;;;;;;;5072812;28;20468;-71
2023/06/25 02:37:15;;;;;;;3.37;2.03;;;;;;;;;;5072311;28;20502;-71
2023/06/25 02:39:43;;;;;;;2.80;1.80;;;;;;;;;;5080292;28;20448;-71
2023/06/25 02:42:10;;;;;;;3.73;2.27;;;;;;;;;;5092825;28;20468;-71
2023/06/25 02:44:37;;;;;;;3.40;2.10;;;;;;;;;;5071597;28;20531;-72
2023/06/25 02:47:05;;;;;;;3.60;2.30;;;;;;;;;;5072885;28;20521;-72
2023/06/25 02:49:33;;;;;;;3.43;1.90;;;;;;;;;;5072396;28;20789;-71
2023/06/25 02:52:00;;;;;;;3.00;2.40;;;;;;;;;;5072571;28;20555;-71
2023/06/25 02:54:28;;;;;;;4.03;1.80;;;;;;;;;;5072753;28;20498;-71
2023/06/25 02:56:56;;;;;;;3.10;1.97;;;;;;;;;;5072715;28;21060;-71
2023/06/25 02:59:23;;;;;;;3.20;1.87;;;;;;;;;;5072507;28;20456;-71
2023/06/25 03:01:50;;;;;;;3.50;2.10;;;;;;;;;;5073284;28;20579;-71
2023/06/25 03:04:17;;;;;;;2.63;1.50;;;;;;;;;;5072645;28;20538;-71
2023/06/25 03:06:46;;;;;;;3.10;1.80;;;;;;;;;;5072199;28;20464;-71
2023/06/25 03:09:13;;;;;;;2.80;1.60;;;;;;;;;;5072233;28;20480;-71
2023/06/25 03:11:41;;;;;;;3.80;2.27;;;;;;;;;;5072402;28;20547;-71
2023/06/25 03:14:08;;;;;;;4.53;1.83;;;;;;;;;;5071254;28;20478;-71
2023/06/25 03:16:35;;;;;;;3.10;2.23;;;;;;;;;;5071737;28;20712;-71
2023/06/25 03:19:02;;;;;;;2.77;1.80;;;;;;;;;;5070502;28;20455;-71
2023/06/25 03:21:30;;;;;;;3.30;1.77;;;;;;;;;;5071982;28;20441;-72
2023/06/25 03:23:58;;;;;;;4.50;2.10;;;;;;;;;;5072408;28;20531;-71
2023/06/25 03:26:26;;;;;;;2.93;2.03;;;;;;;;;;5070755;28;20518;-71
2023/06/25 03:28:53;;;;;;;2.80;2.17;;;;;;;;;;5071589;28;20847;-71
2023/06/25 03:31:21;;;;;;;3.73;1.83;;;;;;;;;;5071887;28;20993;-71
2023/06/25 03:33:48;;;;;;;3.00;2.00;;;;;;;;;;5071707;28;20463;-71
2023/06/25 03:36:15;;;;;;;2.80;1.80;;;;;;;;;;5071675;28;20448;-71
2023/06/25 03:38:42;;;;;;;2.50;1.63;;;;;;;;;;5071659;28;20506;-71
2023/06/25 03:41:11;;;;;;;2.60;1.60;;;;;;;;;;5071967;28;20449;-71
2023/06/25 03:43:38;;;;;;;3.07;1.80;;;;;;;;;;5070163;28;20499;-71
2023/06/25 03:46:05;;;;;;;3.03;2.07;;;;;;;;;;5071374;28;20536;-71
2023/06/25 03:48:33;;;;;;;3.00;1.90;;;;;;;;;;5071220;28;20452;-71
2023/06/25 03:51:00;;;;;;;2.80;1.80;;;;;;;;;;5071008;28;20996;-71
2023/06/25 03:53:28;;;;;;;3.43;2.07;;;;;;;;;;5072044;28;20514;-71
2023/06/25 03:55:55;;;;;;;3.20;1.60;;;;;;;;;;5071626;28;20527;-71
2023/06/25 03:58:24;;;;;;;3.13;1.97;;;;;;;;;;5071287;28;20513;-71
2023/06/25 04:00:51;;;;;;;3.40;1.70;;;;;;;;;;5071666;28;21022;-71
2023/06/25 04:03:18;;;;;;;3.03;1.90;;;;;;;;;;5071310;28;21016;-71
2023/06/25 04:05:45;;;;;;;3.13;1.83;;;;;;;;;;5071420;28;20527;-71
2023/06/25 04:08:13;;;;;;;3.40;2.27;;;;;;;;;;5070968;28;20477;-71
2023/06/25 04:10:40;;;;;;;4.90;2.00;;;;;;;;;;5071389;28;20519;-70
2023/06/25 04:13:07;;;;;;;3.27;1.90;;;;;;;;;;5071405;28;20475;-71
2023/06/25 04:15:36;;;;;;;3.17;2.20;;;;;;;;;;5075038;28;20413;-71
2023/06/25 04:18:04;;;;;;;3.80;1.70;;;;;;;;;;5089198;28;20433;-71
2023/06/25 04:20:31;;;;;;;3.37;2.23;;;;;;;;;;5071590;28;20929;-70
2023/06/25 04:22:59;;;;;;;4.00;2.10;;;;;;;;;;5070994;28;20530;-71
2023/06/25 04:25:26;;;;;;;2.90;1.67;;;;;;;;;;5070582;28;20456;-71
2023/06/25 04:27:55;;;;;;;4.07;2.00;;;;;;;;;;5071564;28;20497;-71
2023/06/25 04:30:22;;;;;;;3.43;2.20;;;;;;;;;;5071186;28;20894;-71
2023/06/25 04:32:51;;;;;;;4.20;2.30;;;;;;;;;;5070924;28;20464;-71
2023/06/25 04:35:18;;;;;;;3.30;1.90;;;;;;;;;;5071330;28;20517;-71
2023/06/25 04:37:45;;;;;;;3.10;2.23;;;;;;;;;;5071242;28;20448;-72
2023/06/25 04:40:13;;;;;;;2.83;1.70;;;;;;;;;;5071040;28;20480;-71
2023/06/25 04:42:40;;;;;;;2.67;1.90;;;;;;;;;;5070634;28;20464;-71
2023/06/25 04:45:08;;;;;;;3.33;2.00;;;;;;;;;;5070920;28;20535;-71
2023/06/25 04:47:35;;;;;;;3.57;1.93;;;;;;;;;;5071178;28;20961;-71
2023/06/25 04:50:04;;;;;;;3.10;1.77;;;;;;;;;;5070763;28;20477;-71
2023/06/25 04:52:31;;;;;;;2.83;1.80;;;;;;;;;;5071117;28;20501;-72
2023/06/25 04:54:59;;;;;;;3.40;1.70;;;;;;;;;;5071002;28;21000;-71
2023/06/25 04:57:26;;;;;;;3.40;1.70;;;;;;;;;;5070459;28;20470;-71
2023/06/25 04:59:53;;;;;;;3.00;1.97;;;;;;;;;;5070829;28;20528;-71
2023/06/25 05:02:20;;;;;;;2.47;1.40;;;;;;;;;;5070711;28;20518;-71
2023/06/25 05:04:48;;;;;;;3.27;1.90;;;;;;;;;;5071132;28;20496;-71
2023/06/25 05:07:16;;;;;;;4.60;1.97;;;;;;;;;;5071019;28;20469;-71
2023/06/25 05:09:44;;;;;;;3.17;1.70;;;;;;;;;;5071146;28;20531;-71
2023/06/25 05:12:11;;;;;;;3.10;1.90;;;;;;;;;;5071401;28;20883;-71
2023/06/25 05:14:38;;;;;;;3.47;1.97;;;;;;;;;;5069456;28;20521;-71
2023/06/25 05:17:06;;;;;;;2.83;2.03;;;;;;;;;;5067692;28;20449;-71
2023/06/25 05:19:33;;;;;;;3.70;2.07;;;;;;;;;;5070581;28;21041;-71
2023/06/25 05:22:00;;;;;;;3.10;1.50;;;;;;;;;;5070497;28;20483;-71
2023/06/25 05:27:07;;;;;;;2.80;1.40;;;;;;;;;;5110239;28;20467;-51
2023/06/25 05:29:35;;;;;;;2.90;1.90;;;;;;;;;;5114484;28;20470;-51
2023/06/25 05:32:02;;;;;;;3.20;2.10;;;;;;;;;;5114468;28;20474;-51
2023/06/25 05:34:29;;;;;;;3.83;1.90;;;;;;;;;;5112370;28;20482;-50
2023/06/25 05:36:56;;;;;;;3.53;2.00;;;;;;;;;;5113163;28;20455;-51
2023/06/25 05:39:28;;;;;;;2.90;1.60;;;;;;;;;;5111226;28;20534;-52
2023/06/25 05:41:55;;;;;;;3.47;2.50;;;;;;;;;;5113997;28;20434;-52
2023/06/25 05:44:24;;;;;;;3.33;1.83;;;;;;;;;;5112468;28;21054;-51
2023/06/25 05:46:51;;;;;;;2.90;1.80;;;;;;;;;;5113264;28;20496;-51
2023/06/25 05:49:19;;;;;;;3.20;1.90;;;;;;;;;;5113173;28;20518;-51
2023/06/25 05:51:46;;;;;;;2.90;1.90;;;;;;;;;;5113808;28;20561;-51
2023/06/25 05:54:13;;;;;;;3.47;1.80;;;;;;;;;;5114156;28;20436;-51
2023/06/25 05:56:40;;;;;;;3.00;2.00;;;;;;;;;;5113092;28;20482;-51
2023/06/25 05:59:08;;;;;;;3.40;2.30;;;;;;;;;;5113456;28;20934;-51
2023/06/25 06:01:36;;;;;;;3.80;1.97;;;;;;;;;;5113192;28;20577;-51
2023/06/25 06:04:05;;;;;;;3.10;1.90;;;;;;;;;;5111053;28;20530;-51
2023/06/25 06:06:32;;;;;;;3.50;2.10;;;;;;;;;;5113221;28;20558;-52
2023/06/25 06:09:00;;;;;;;3.40;1.97;;;;;;;;;;5113270;28;20692;-52
2023/06/25 06:11:27;;;;;;;3.17;1.80;;;;;;;;;;5113675;28;20503;-51
2023/06/25 06:13:55;;;;;;;3.40;1.93;;;;;;;;;;5111556;28;20465;-52
2023/06/25 06:16:22;;;;;;;3.07;2.00;;;;;;;;;;5112226;28;21036;-52
2023/06/25 06:18:50;;;;;;;3.33;1.87;;;;;;;;;;5111291;28;21001;-52
2023/06/25 06:21:18;;;;;;;2.97;1.87;;;;;;;;;;5111587;28;20442;-52
2023/06/25 06:23:45;;;;;;;3.40;1.90;;;;;;;;;;5112999;28;20484;-52
2023/06/25 06:26:12;;;;;;;3.03;1.87;;;;;;;;;;5112354;28;20597;-51
2023/06/25 06:28:39;;;;;;;2.80;1.73;;;;;;;;;;5112626;28;20872;-52
2023/06/25 06:31:07;;;;;;;2.87;1.57;;;;;;;;;;5112970;28;20578;-51
2023/06/25 06:33:34;;;;;;;3.27;1.87;;;;;;;;;;5113149;28;20487;-52
2023/06/25 06:36:02;;;;;;;3.33;1.90;;;;;;;;;;5112373;28;20474;-51
2023/06/25 06:38:30;;;;;;;3.40;2.03;;;;;;;;;;5111748;28;20430;-52
2023/06/25 06:40:57;;;;;;;2.80;1.87;;;;;;;;;;5108479;28;20874;-51
2023/06/25 06:43:25;;;;;;;4.80;2.90;;;;;;;;;;5112683;28;20473;-52
2023/06/25 06:45:52;;;;;;;3.63;2.40;;;;;;;;;;5112383;28;20485;-51
2023/06/25 06:48:19;;;;;;;5.50;2.30;;;;;;;;;;5112633;28;20439;-51
2023/06/25 06:50:46;;;;;;;3.50;2.30;;;;;;;;;;5110798;28;20569;-52
2023/06/25 06:53:15;;;;;;;4.30;2.77;;;;;;;;;;5112571;28;20514;-51
2023/06/25 06:55:42;;;;;;;2.90;1.70;;;;;;;;;;5112352;28;20547;-51
2023/06/25 06:58:10;;;;;;;2.90;1.67;;;;;;;;;;5111807;28;20852;-51
2023/06/25 07:00:37;;;;;;;3.90;2.40;;;;;;;;;;5109914;28;20597;-51
2023/06/25 07:03:04;;;;;;;3.90;2.27;;;;;;;;;;5112246;28;20593;-51
2023/06/25 07:05:31;;;;;;;3.90;2.13;;;;;;;;;;5112203;28;20910;-53
2023/06/25 07:07:58;;;;;;;3.73;2.40;;;;;;;;;;5111971;28;20518;-51
2023/06/25 07:10:27;;;;;;;3.27;2.10;;;;;;;;;;5112276;28;20873;-51
2023/06/25 07:12:54;;;;;;;4.20;2.47;;;;;;;;;;5111916;28;20887;-51
2023/06/25 07:15:21;;;;;;;4.43;2.60;;;;;;;;;;5110131;28;20486;-51
2023/06/25 07:17:49;;;;;;;3.77;2.40;;;;;;;;;;5110062;28;20521;-51
2023/06/25 07:20:16;;;;;;;4.13;2.50;;;;;;;;;;5112051;28;20462;-52
2023/06/25 07:22:43;;;;;;;3.43;2.00;;;;;;;;;;5112493;28;20523;-51
2023/06/25 07:25:11;;;;;;;4.40;3.20;;;;;;;;;;5112031;28;20473;-51
2023/06/25 07:27:40;;;;;;;4.77;1.90;;;;;;;;;;5108941;28;20438;-51
2023/06/25 07:30:08;;;;;;;3.67;2.60;;;;;;;;;;5110165;28;20514;-51
2023/06/25 07:32:35;;;;;;;3.70;2.40;;;;;;;;;;5111521;28;20557;-51
2023/06/25 07:35:02;;;;;;;3.93;2.13;;;;;;;;;;5111565;28;20510;-50
2023/06/25 07:37:29;;;;;;;3.70;2.13;;;;;;;;;;5111842;28;20518;-51
2023/06/25 07:39:56;;;;;;;3.57;2.57;;;;;;;;;;5111441;28;20432;-51
2023/06/25 07:42:24;;;;;;;3.17;2.10;;;;;;;;;;5111470;28;20530;-51
2023/06/25 07:44:52;;;;;;;3.23;2.00;;;;;;;;;;5111725;28;20551;-51
2023/06/25 07:47:19;;;;;;;3.27;2.00;;;;;;;;;;5108714;28;20484;-51
2023/06/25 07:49:47;;;;;;;3.83;2.73;;;;;;;;;;5110208;28;20530;-51
2023/06/25 07:52:14;;;;;;;4.60;2.90;;;;;;;;;;5109712;28;20546;-51
2023/06/25 07:54:41;;;;;;;3.90;2.50;;;;;;;;;;5111023;28;20552;-51
2023/06/25 07:57:08;;;;;;;3.47;2.07;;;;;;;;;;5111127;28;20431;-51
2023/06/25 07:59:36;;;;;;;4.37;2.10;;;;;;;;;;5111043;28;20917;-51
2023/06/25 08:02:04;;;;;;;6.43;3.40;;;;;;;;;;5111321;28;20515;-51
2023/06/25 08:04:32;;;;;;;4.50;3.20;;;;;;;;;;5111282;28;20541;-51
2023/06/25 08:06:59;;;;;;;4.50;2.97;;;;;;;;;;5106249;28;20960;-51
2023/06/25 08:09:27;;;;;;;3.70;2.07;;;;;;;;;;5111213;28;20525;-51
2023/06/25 08:11:54;;;;;;;3.50;2.23;;;;;;;;;;5110940;28;20498;-51
2023/06/25 08:14:21;;;;;;;3.10;2.10;;;;;;;;;;5109615;28;20439;-51
2023/06/25 08:16:48;;;;;;;5.43;2.93;;;;;;;;;;5108374;28;20889;-51
2023/06/25 08:19:17;;;;;;;3.83;2.70;;;;;;;;;;5109347;28;20947;-51
2023/06/25 08:21:44;;;;;;;3.40;1.93;;;;;;;;;;5109543;28;20505;-51
2023/06/25 08:24:11;;;;;;;3.93;2.40;;;;;;;;;;5111214;28;20474;-50
2023/06/25 08:26:39;;;;;;;4.60;3.43;;;;;;;;;;5107855;28;20516;-51
2023/06/25 08:29:06;;;;;;;4.47;2.63;;;;;;;;;;5107391;28;20987;-52
2023/06/25 08:31:33;;;;;;;3.43;2.40;;;;;;;;;;5105123;28;21092;-51
2023/06/25 08:34:01;;;;;;;3.80;2.70;;;;;;;;;;5125285;28;20456;-51
2023/06/25 08:36:29;;;;;;;4.03;2.43;;;;;;;;;;5126949;28;20469;-51
2023/06/25 08:38:57;;;;;;;4.27;3.27;;;;;;;;;;5127639;28;20537;-51
2023/06/25 08:41:26;;;;;;;3.50;2.37;;;;;;;;;;5130511;28;21028;-53
2023/06/25 08:43:53;;;;;;;3.97;2.43;;;;;;;;;;5130778;28;20448;-51
2023/06/25 08:46:22;;;;;;;3.73;2.40;;;;;;;;;;5130622;28;20498;-51
2023/06/25 08:48:50;;;;;;;3.20;2.27;;;;;;;;;;5130581;28;20454;-51
2023/06/25 08:51:19;;;;;;;3.93;2.60;;;;;;;;;;5130170;28;20525;-50
2023/06/25 08:53:48;;;;;;;4.03;2.50;;;;;;;;;;5130849;28;20786;-50
2023/06/25 08:56:16;;;;;;;3.70;2.47;;;;;;;;;;5127792;28;20462;-51
2023/06/25 08:58:44;;;;;;;4.73;2.93;;;;;;;;;;5109267;28;20442;-51
2023/06/25 09:01:12;;;;;;;3.57;2.63;;;;;;;;;;5111278;28;20434;-52
2023/06/25 09:03:39;;;;;;;3.20;2.00;;;;;;;;;;5113673;28;20447;-51
2023/06/25 09:06:13;;;;;;;3.70;2.07;;;;;;;;;;5109856;28;20553;-50
2023/06/25 09:08:41;;;;;;;4.23;2.27;;;;;;;;;;5113293;28;20438;-51
2023/06/25 09:11:10;;;;;;;6.03;2.70;;;;;;;;;;5110916;28;20506;-51
2023/06/25 09:13:38;;;;;;;4.30;2.43;;;;;;;;;;5113706;28;20946;-52
2023/06/25 09:16:07;;;;;;;4.20;2.60;;;;;;;;;;5111535;28;20503;-51
2023/06/25 09:18:34;;;;;;;3.80;2.03;;;;;;;;;;5111516;28;20475;-50
2023/06/25 09:21:02;;;;;;;4.20;3.03;;;;;;;;;;5106703;28;20459;-51
2023/06/25 09:23:30;;;;;;;3.93;2.27;;;;;;;;;;5111171;28;20852;-52
2023/06/25 09:25:57;;;;;;;4.20;2.73;;;;;;;;;;5110179;28;20560;-51
2023/06/25 09:28:26;;;;;;;3.95;2.50;;;;;;;;;;5107994;28;20997;-50
2023/06/25 09:30:57;;;;;;;5.30;2.67;;;;;;;;;;5108944;28;20695;-49
2023/06/25 09:33:31;;;;;;;4.60;2.87;;;;;;;;;;5109304;28;21212;-49
2023/06/25 09:36:02;;;;;;;4.20;3.00;;;;;;;;;;5109008;28;20469;-50
2023/06/25 09:38:29;;;;;;;4.70;3.03;;;;;;;;;;5106876;28;20457;-49
2023/06/25 09:40:58;;;;;;;3.03;2.27;;;;;;;;;;5108039;28;20525;-50
2023/06/25 09:43:27;;;;;;;8.00;3.40;;;;;;;;;;5109825;28;20446;-49
2023/06/25 09:45:54;;;;;;;7.20;3.17;;;;;;;;;;5110175;28;20454;-49
2023/06/25 09:48:24;;;;;;;8.57;3.30;;;;;;;;;;5109993;28;20547;-49
2023/06/25 09:50:53;;;;;;;4.33;2.93;;;;;;;;;;5109543;28;20447;-50
2023/06/25 09:53:25;;;;;;;7.23;2.90;;;;;;;;;;5108810;28;20470;-49
2023/06/25 09:55:53;;;;;;;5.47;3.33;;;;;;;;;;5110174;28;20911;-50
2023/06/25 09:58:21;;;;;;;7.63;2.77;;;;;;;;;;5110225;28;20530;-50
2023/06/25 10:00:50;;;;;;;5.67;3.40;;;;;;;;;;5110375;28;20511;-49
2023/06/25 10:03:17;;;;;;;6.17;2.80;;;;;;;;;;5100645;28;20447;-50
2023/06/25 10:05:44;;;;;;;9.33;3.20;;;;;;;;;;5108527;28;20545;-50
2023/06/25 10:08:12;;;;;;;6.73;3.13;;;;;;;;;;5109439;28;20526;-50
2023/06/25 10:10:40;;;;;;;6.20;2.60;;;;;;;;;;5109939;28;20445;-49
2023/06/25 10:13:07;;;;;;;6.10;2.67;;;;;;;;;;5108701;28;20834;-50
2023/06/25 10:15:35;;;;;;;4.30;2.70;;;;;;;;;;5108383;28;20975;-50
2023/06/25 10:18:05;;;;;;;4.67;2.90;;;;;;;;;;5109752;28;20431;-50
2023/06/25 10:20:33;;;;;;;4.90;3.20;;;;;;;;;;5112117;28;20466;-51
2023/06/25 10:23:07;;;;;;;4.27;2.77;;;;;;;;;;5112170;28;20506;-50
2023/06/25 10:25:35;;;;;;;6.40;3.73;;;;;;;;;;5112296;28;20498;-51
2023/06/25 10:28:03;;;;;;;4.40;2.73;;;;;;;;;;5111674;28;20439;-50
2023/06/25 10:30:36;;;;;;;3.70;3.00;;;;;;;;;;5112361;28;20455;-50
2023/06/25 10:33:05;;;;;;;5.80;3.50;;;;;;;;;;5112145;28;20537;-50
2023/06/25 10:35:37;;;;;;;3.33;2.30;;;;;;;;;;5112895;28;20549;-50
2023/06/25 10:38:04;;;;;;;4.67;3.00;;;;;;;;;;5110569;28;20452;-49
2023/06/25 10:40:34;;;;;;;4.60;3.23;;;;;;;;;;5112642;28;20474;-50
2023/06/25 10:43:01;;;;;;;6.00;3.40;;;;;;;;;;5112937;28;20439;-50
2023/06/25 10:45:29;;;;;;;4.33;2.77;;;;;;;;;;5113229;28;20466;-50
2023/06/25 10:48:08;;;;;;;3.37;2.43;;;;;;;;;;5110137;28;20474;-50
2023/06/25 10:50:36;;;;;;;3.37;2.57;;;;;;;;;;5112976;28;20450;-50
2023/06/25 10:53:04;;;;;;;7.00;3.70;;;;;;;;;;5112376;28;20582;-50
2023/06/25 10:55:31;;;;;;;4.63;2.80;;;;;;;;;;5111541;28;20483;-47
2023/06/25 10:57:58;;;;;;;3.43;2.27;;;;;;;;;;5110385;28;20533;-50
2023/06/25 11:00:27;;;;;;;6.30;4.20;;;;;;;;;;5121222;27;22085;-50
2023/06/25 11:02:54;;;;;;;4.33;2.90;;;;;;;;;;5119611;27;20820;-49
2023/06/25 11:05:32;;;;;;;4.27;2.97;;;;;;;;;;5133107;27;20489;-50
2023/06/25 11:08:00;;;;;;;4.97;3.00;;;;;;;;;;5132330;27;20437;-50
2023/06/25 11:10:27;;;;;;;5.67;3.87;;;;;;;;;;5128833;27;20475;-50
2023/06/25 11:12:56;;;;;;;4.23;2.73;;;;;;;;;;5106917;28;20495;-50
2023/06/25 11:15:23;;;;;;;4.77;2.97;;;;;;;;;;5090313;28;20471;-51
2023/06/25 11:17:52;;;;;;;3.77;2.97;;;;;;;;;;5091758;28;20436;-48
2023/06/25 11:20:19;;;;;;;5.17;3.33;;;;;;;;;;5111425;28;20460;-51
2023/06/25 11:22:48;;;;;;;6.17;3.23;;;;;;;;;;5111915;28;20462;-50
2023/06/25 11:25:15;;;;;;;4.53;3.50;;;;;;;;;;5110880;28;20549;-50
2023/06/25 11:27:43;;;;;;;5.13;3.63;;;;;;;;;;5111946;28;20608;-50
2023/06/25 11:30:10;;;;;;;4.60;3.00;;;;;;;;;;5111959;28;20466;-50
2023/06/25 11:32:39;;;;;;;4.27;3.00;;;;;;;;;;5110189;28;20940;-50
2023/06/25 11:35:11;;;;;;;5.13;2.93;;;;;;;;;;5110504;28;20467;-50
2023/06/25 11:37:45;;;;;;;5.60;3.60;;;;;;;;;;5107167;28;20439;-50
2023/06/25 11:40:23;;;;;;;6.10;3.90;;;;;;;;;;5108760;28;20525;-50
2023/06/25 11:42:51;;;;;;;5.13;3.50;;;;;;;;;;5090434;28;20435;-50
2023/06/25 11:45:18;;;;;;;5.30;3.60;;;;;;;;;;5106746;28;20454;-50
2023/06/25 11:47:46;;;;;;;5.40;3.97;;;;;;;;;;5090594;28;21121;-50
2023/06/25 11:50:13;;;;;;;6.33;4.30;;;;;;;;;;5096072;28;20446;-50
2023/06/25 11:52:41;;;;;;;5.07;3.47;;;;;;;;;;5103134;28;20562;-50
2023/06/25 11:55:08;;;;;;;5.80;3.93;;;;;;;;;;5111916;28;20531;-50
2023/06/25 11:57:37;;;;;;;5.90;4.17;;;;;;;;;;5108385;28;20494;-50
2023/06/25 12:00:05;;;;;;;5.60;4.17;;;;;;;;;;5090126;28;20970;-50
2023/06/25 12:02:32;;;;;;;6.13;5.17;;;;;;;;;;5088358;28;20467;-50
2023/06/25 12:04:59;;;;;;;5.43;3.83;;;;;;;;;;5089949;28;20491;-51
2023/06/25 12:07:27;;;;;;;5.13;4.00;;;;;;;;;;5089391;28;20783;-50
2023/06/25 12:09:54;;;;;;;5.10;4.30;;;;;;;;;;5089448;28;20934;-50
2023/06/25 12:12:21;;;;;;;5.50;3.97;;;;;;;;;;5089560;28;20523;-50
2023/06/25 12:14:50;;;;;;;5.63;4.03;;;;;;;;;;5092732;28;20546;-50
2023/06/25 12:17:17;;;;;;;4.53;3.30;;;;;;;;;;5110665;28;20449;-50
2023/06/25 12:19:44;;;;;;;5.50;4.27;;;;;;;;;;5108086;28;20451;-50
2023/06/25 12:22:12;;;;;;;6.83;4.07;;;;;;;;;;5094838;28;20535;-50
2023/06/25 12:24:39;;;;;;;6.20;4.33;;;;;;;;;;5093808;28;20922;-50
2023/06/25 12:27:06;;;;;;;5.20;4.10;;;;;;;;;;5110547;28;20945;-50
2023/06/25 12:29:33;;;;;;;6.50;4.40;;;;;;;;;;5109208;28;20472;-50
2023/06/25 12:32:02;;;;;;;5.60;3.90;;;;;;;;;;5096484;28;20858;-51
2023/06/25 12:34:29;;;;;;;5.10;3.60;;;;;;;;;;5090744;28;20563;-50
2023/06/25 12:36:56;;;;;;;5.33;4.30;;;;;;;;;;5089694;28;20864;-50
2023/06/25 12:39:24;;;;;;;5.13;4.40;;;;;;;;;;5088788;28;20527;-50
2023/06/25 12:41:51;;;;;;;5.90;4.27;;;;;;;;;;5090791;28;20534;-50
2023/06/25 12:44:18;;;;;;;5.90;4.30;;;;;;;;;;5094187;28;20479;-49
2023/06/25 12:46:45;;;;;;;6.83;4.53;;;;;;;;;;5119465;28;20537;-51
2023/06/25 12:49:14;;;;;;;4.80;3.70;;;;;;;;;;5131374;28;20442;-50
2023/06/25 12:51:41;;;;;;;5.80;3.90;;;;;;;;;;5114582;28;20925;-50
2023/06/25 12:54:08;;;;;;;4.50;3.03;;;;;;;;;;5131392;28;20473;-50
2023/06/25 12:56:36;;;;;;;5.33;3.87;;;;;;;;;;5119570;28;20463;-50
2023/06/25 12:59:03;;;;;;;4.93;3.90;;;;;;;;;;5095139;28;20527;-49
2023/06/25 13:01:30;;;;;;;6.87;5.00;;;;;;;;;;5090495;28;20475;-49
2023/06/25 13:03:57;;;;;;;6.50;3.93;;;;;;;;;;5095095;28;20463;-50
2023/06/25 13:06:26;;;;;;;5.43;4.13;;;;;;;;;;5110113;28;20543;-50
2023/06/25 13:08:53;;;;;;;4.90;3.80;;;;;;;;;;5110387;28;20948;-49
2023/06/25 13:11:21;;;;;;;6.20;4.30;;;;;;;;;;5111213;28;20500;-50
2023/06/25 13:13:48;;;;;;;5.20;3.80;;;;;;;;;;5109875;28;20570;-49
2023/06/25 13:16:15;;;;;;;4.63;3.47;;;;;;;;;;5110309;28;20535;-49
2023/06/25 13:18:43;;;;;;;4.57;3.43;;;;;;;;;;5110914;28;20520;-50
2023/06/25 13:21:10;;;;;;;5.40;4.67;;;;;;;;;;5111099;28;20503;-50
2023/06/25 13:23:39;;;;;;;5.50;3.90;;;;;;;;;;5107088;28;20892;-50
2023/06/25 13:26:06;;;;;;;4.70;3.73;;;;;;;;;;5110173;28;20549;-50
2023/06/25 13:28:33;;;;;;;5.37;4.07;;;;;;;;;;5109471;28;20918;-51
2023/06/25 13:31:01;;;;;;;5.37;4.43;;;;;;;;;;5110074;28;20482;-50
2023/06/25 13:33:28;;;;;;;5.20;4.00;;;;;;;;;;5110636;28;20533;-50
2023/06/25 13:35:55;;;;;;;5.63;4.20;;;;;;;;;;5109886;28;20554;-51
2023/06/25 13:38:23;;;;;;;5.20;3.93;;;;;;;;;;5110239;28;20533;-50
2023/06/25 13:40:51;;;;;;;6.63;3.60;;;;;;;;;;5108763;28;20953;-50
2023/06/25 13:43:18;;;;;;;5.10;3.60;;;;;;;;;;5109601;28;20522;-50
2023/06/25 13:45:46;;;;;;;5.70;4.13;;;;;;;;;;5110498;28;20551;-49
2023/06/25 13:48:13;;;;;;;4.83;3.60;;;;;;;;;;5111486;28;20518;-49
2023/06/25 13:50:40;;;;;;;5.87;3.70;;;;;;;;;;5113805;28;20462;-49
2023/06/25 13:53:07;;;;;;;7.77;4.30;;;;;;;;;;5113830;28;20503;-49
2023/06/25 13:55:35;;;;;;;4.20;3.20;;;;;;;;;;5113845;28;20550;-51
2023/06/25 13:58:03;;;;;;;4.73;3.47;;;;;;;;;;5113462;28;20474;-50
2023/06/25 14:00:31;;;;;;;6.13;4.17;;;;;;;;;;5114049;28;20474;-50
2023/06/25 14:02:58;;;;;;;5.03;3.60;;;;;;;;;;5112219;28;20443;-50
2023/06/25 14:05:25;;;;;;;5.87;4.30;;;;;;;;;;5113955;28;20829;-49
2023/06/25 14:07:53;;;;;;;4.93;3.43;;;;;;;;;;5113805;28;20537;-50
2023/06/25 14:10:20;;;;;;;5.60;3.70;;;;;;;;;;5113551;28;20466;-50
2023/06/25 14:12:47;;;;;;;5.93;3.70;;;;;;;;;;5113288;28;21004;-50
2023/06/25 14:15:16;;;;;;;6.73;4.30;;;;;;;;;;5111942;28;20546;-49
2023/06/25 14:17:43;;;;;;;6.40;4.33;;;;;;;;;;5111194;28;20498;-50
2023/06/25 14:20:10;;;;;;;4.77;3.73;;;;;;;;;;5112216;28;20518;-50
2023/06/25 14:22:38;;;;;;;5.13;3.90;;;;;;;;;;5112322;28;20475;-49
2023/06/25 14:25:05;;;;;;;4.90;3.70;;;;;;;;;;5112178;28;20521;-51
2023/06/25 14:27:32;;;;;;;6.60;4.20;;;;;;;;;;5111807;28;20530;-51
2023/06/25 14:29:59;;;;;;;5.43;3.53;;;;;;;;;;5111938;28;20525;-50
2023/06/25 14:32:28;;;;;;;6.50;4.40;;;;;;;;;;5111973;28;20525;-49
2023/06/25 14:34:55;;;;;;;5.67;4.20;;;;;;;;;;5112936;28;20954;-50
2023/06/25 14:37:22;;;;;;;6.20;4.30;;;;;;;;;;5113002;28;21007;-49
2023/06/25 14:39:50;;;;;;;8.43;5.10;;;;;;;;;;5111178;28;20525;-50
2023/06/25 14:42:17;;;;;;;8.30;5.33;;;;;;;;;;5113102;28;20530;-49
2023/06/25 14:44:44;;;;;;;6.00;4.87;;;;;;;;;;5113225;28;20818;-49
2023/06/25 14:47:12;;;;;;;6.10;4.17;;;;;;;;;;5112761;28;20442;-50
2023/06/25 14:49:40;;;;;;;5.93;4.40;;;;;;;;;;5112588;28;20470;-49